createdAt,value
2019-03-28T00:01:38.390Z,94.80
2019-03-28T00:04:06.836Z,94.80
2019-03-28T00:06:35.278Z,95.50
2019-03-28T00:09:07.703Z,95.30
2019-03-28T00:11:35.778Z,95.70
2019-03-28T00:14:04.293Z,95.60
2019-03-28T00:16:32.787Z,95.40
2019-03-28T00:19:01.294Z,94.90
2019-03-28T00:21:29.735Z,95.50
2019-03-28T00:23:59.836Z,95.40
2019-03-28T00:26:30.471Z,95.50
2019-03-28T00:28:58.464Z,94.00
2019-03-28T00:31:26.948Z,94.10
2019-03-28T00:33:55.391Z,94.40
2019-03-28T00:36:23.835Z,94.90
2019-03-28T00:38:52.312Z,94.70
2019-03-28T00:41:20.758Z,94.60
2019-03-28T00:43:49.192Z,94.00
2019-03-28T00:46:18.055Z,94.10
2019-03-28T00:48:46.505Z,95.10
2019-03-28T00:51:15.080Z,94.40
2019-03-28T00:53:43.567Z,94.50
2019-03-28T00:56:12.028Z,94.60
2019-03-28T00:58:40.479Z,94.10
2019-03-28T01:01:08.957Z,94.80
2019-03-28T01:03:37.551Z,95.00
2019-03-28T01:06:05.991Z,95.20
2019-03-28T01:08:34.484Z,94.70
2019-03-28T01:11:02.924Z,95.40
2019-03-28T01:13:31.364Z,95.10
2019-03-28T01:15:59.840Z,95.30
2019-03-28T01:18:28.300Z,94.70
2019-03-28T01:20:56.750Z,94.80
2019-03-28T01:23:25.216Z,95.10
2019-03-28T01:25:53.730Z,94.10
2019-03-28T01:28:22.170Z,95.20
2019-03-28T01:30:50.651Z,95.20
2019-03-28T01:33:19.100Z,94.90
2019-03-28T01:35:48.231Z,94.00
2019-03-28T01:38:16.783Z,94.80
2019-03-28T01:40:45.607Z,93.90
2019-03-28T01:43:14.184Z,94.50
2019-03-28T01:45:42.944Z,93.80
2019-03-28T01:48:11.393Z,94.10
2019-03-28T01:50:39.992Z,95.00
2019-03-28T01:53:08.533Z,95.00
2019-03-28T01:55:36.975Z,94.60
2019-03-28T01:58:05.448Z,93.70
2019-03-28T02:00:34.148Z,94.40
2019-03-28T02:03:02.599Z,94.40
2019-03-28T02:05:31.051Z,93.90
2019-03-28T02:08:02.509Z,94.40
2019-03-28T02:10:29.776Z,95.30
2019-03-28T02:12:58.212Z,95.20
2019-03-28T02:15:26.776Z,95.30
2019-03-28T02:17:55.296Z,95.30
2019-03-28T02:20:23.804Z,95.10
2019-03-28T02:22:52.289Z,95.30
2019-03-28T02:25:20.736Z,94.90
2019-03-28T02:27:49.255Z,95.20
2019-03-28T02:30:38.582Z,95.30
2019-03-28T02:33:07.026Z,95.40
2019-03-28T02:35:35.468Z,95.30
2019-03-28T02:38:04.005Z,95.40
2019-03-28T02:40:32.452Z,94.80
2019-03-28T02:43:00.884Z,95.30
2019-03-28T02:45:30.007Z,94.80
2019-03-28T02:47:58.891Z,94.70
2019-03-28T02:50:27.334Z,94.90
2019-03-28T02:52:55.803Z,95.40
2019-03-28T02:55:24.316Z,95.10
2019-03-28T02:57:52.837Z,95.00
2019-03-28T03:00:21.452Z,95.30
2019-03-28T03:02:49.901Z,95.10
2019-03-28T03:05:18.425Z,93.80
2019-03-28T03:07:46.891Z,94.00
2019-03-28T03:10:15.548Z,94.60
2019-03-28T03:12:44.007Z,94.80
2019-03-28T03:15:12.815Z,94.90
2019-03-28T03:17:41.745Z,94.70
2019-03-28T03:20:10.896Z,94.40
2019-03-28T03:22:39.444Z,94.50
2019-03-28T03:25:08.324Z,93.20
2019-03-28T03:27:37.198Z,93.50
2019-03-28T03:30:08.287Z,94.10
2019-03-28T03:32:36.797Z,93.50
2019-03-28T03:35:05.776Z,92.80
2019-03-28T03:37:34.309Z,92.90
2019-03-28T03:40:03.135Z,92.40
2019-03-28T03:42:31.587Z,92.20
2019-03-28T03:45:00.067Z,91.90
2019-03-28T03:47:28.589Z,92.10
2019-03-28T03:49:57.061Z,91.90
2019-03-28T03:52:25.601Z,92.00
2019-03-28T03:54:54.046Z,92.00
2019-03-28T03:57:22.495Z,91.80
2019-03-28T03:59:50.969Z,91.80
2019-03-28T04:02:19.488Z,92.00
2019-03-28T04:04:48.028Z,91.90
2019-03-28T04:07:16.577Z,91.90
2019-03-28T04:09:45.021Z,91.60
2019-03-28T04:12:13.471Z,91.60
2019-03-28T04:14:42.033Z,91.60
2019-03-28T04:17:10.550Z,91.70
2019-03-28T04:19:38.986Z,91.80
2019-03-28T04:22:07.471Z,92.00
2019-03-28T04:24:35.934Z,91.90
2019-03-28T04:27:04.445Z,91.80
2019-03-28T04:29:32.922Z,91.90
2019-03-28T04:32:01.364Z,92.20
2019-03-28T04:34:29.806Z,92.10
2019-03-28T04:36:58.281Z,92.10
2019-03-28T04:39:26.725Z,92.10
2019-03-28T04:41:55.181Z,91.70
2019-03-28T04:44:23.643Z,91.70
2019-03-28T04:46:52.086Z,91.80
2019-03-28T04:49:20.529Z,91.90
2019-03-28T04:51:49.004Z,92.20
2019-03-28T04:54:17.459Z,91.80
2019-03-28T04:56:45.907Z,91.70
2019-03-28T04:59:14.933Z,91.90
2019-03-28T05:01:43.885Z,91.40
2019-03-28T05:04:12.340Z,91.60
2019-03-28T05:06:40.822Z,91.60
2019-03-28T05:09:09.266Z,91.50
2019-03-28T05:11:37.708Z,91.30
2019-03-28T05:14:06.187Z,91.60
2019-03-28T05:16:34.638Z,91.70
2019-03-28T05:19:03.075Z,91.50
2019-03-28T05:21:31.622Z,91.60
2019-03-28T05:24:00.130Z,91.50
2019-03-28T05:26:28.599Z,91.70
2019-03-28T05:28:58.137Z,91.90
2019-03-28T05:31:27.234Z,91.90
2019-03-28T05:33:55.673Z,92.00
2019-03-28T05:36:24.148Z,91.60
2019-03-28T05:38:52.589Z,91.50
2019-03-28T05:41:21.028Z,91.60
2019-03-28T05:43:49.511Z,91.50
2019-03-28T05:46:17.955Z,91.60
2019-03-28T05:48:46.397Z,91.50
2019-03-28T05:51:14.855Z,91.60
2019-03-28T05:53:44.095Z,91.70
2019-03-28T05:56:12.801Z,91.70
2019-03-28T05:58:41.277Z,91.90
2019-03-28T06:01:09.734Z,91.90
2019-03-28T06:03:38.178Z,91.80
2019-03-28T06:06:06.655Z,91.80
2019-03-28T06:08:35.109Z,91.60
2019-03-28T06:11:03.634Z,91.80
2019-03-28T06:13:32.110Z,91.70
2019-03-28T06:16:00.552Z,91.40
2019-03-28T06:18:29.006Z,91.60
2019-03-28T06:20:59.575Z,92.00
2019-03-28T06:23:27.731Z,91.90
2019-03-28T06:28:48.164Z,92.10
2019-03-28T06:31:16.624Z,92.30
2019-03-28T06:33:45.076Z,92.30
2019-03-28T06:36:14.325Z,92.30
2019-03-28T06:38:43.075Z,92.40
2019-03-28T06:41:11.508Z,92.00
2019-03-28T06:43:42.080Z,92.10
2019-03-28T06:46:10.147Z,91.80
2019-03-28T06:48:38.597Z,92.30
2019-03-28T06:51:07.067Z,91.90
2019-03-28T06:53:35.504Z,92.20
2019-03-28T06:56:03.960Z,92.00
2019-03-28T06:58:32.441Z,91.80
2019-03-28T07:01:01.151Z,91.80
2019-03-28T07:03:29.675Z,91.70
2019-03-28T07:05:58.156Z,91.50
2019-03-28T07:08:26.616Z,91.50
2019-03-28T07:10:57.887Z,91.70
2019-03-28T07:13:25.253Z,91.10
2019-03-28T07:15:53.705Z,91.00
2019-03-28T07:18:22.145Z,91.00
2019-03-28T07:20:50.666Z,90.90
2019-03-28T07:23:19.176Z,90.80
2019-03-28T07:25:47.617Z,91.00
2019-03-28T07:28:16.091Z,90.80
2019-03-28T07:30:45.369Z,91.30
2019-03-28T07:33:14.033Z,90.90
2019-03-28T07:35:42.517Z,90.60
2019-03-28T07:38:11.028Z,90.50
2019-03-28T07:40:39.467Z,90.40
2019-03-28T07:43:27.284Z,90.20
2019-03-28T07:45:55.719Z,90.30
2019-03-28T07:48:24.155Z,90.30
2019-03-28T07:50:52.626Z,90.30
2019-03-28T07:53:21.597Z,90.50
2019-03-28T07:55:50.283Z,90.30
2019-03-28T07:58:18.761Z,90.30
2019-03-28T08:00:47.207Z,90.00
2019-03-28T08:03:15.651Z,90.20
2019-03-28T08:05:44.127Z,90.10
2019-03-28T08:08:12.635Z,90.30
2019-03-28T08:10:41.081Z,90.30
2019-03-28T08:13:09.556Z,90.10
2019-03-28T08:15:37.991Z,89.70
2019-03-28T08:18:06.500Z,89.30
2019-03-28T08:20:35.035Z,89.50
2019-03-28T08:23:03.473Z,88.30
2019-03-28T08:25:31.991Z,89.00
2019-03-28T08:28:00.465Z,87.80
2019-03-28T08:30:39.843Z,88.10
2019-03-28T08:33:09.312Z,87.40
2019-03-28T08:35:38.196Z,87.50
2019-03-28T08:38:09.717Z,87.00
2019-03-28T08:40:42.026Z,86.60
2019-03-28T08:43:10.684Z,86.90
2019-03-28T08:45:39.303Z,85.90
2019-03-28T08:48:08.117Z,85.70
2019-03-28T08:50:36.565Z,85.00
2019-03-28T08:53:05.094Z,85.40
2019-03-28T08:55:33.700Z,85.60
2019-03-28T08:58:02.156Z,84.90
2019-03-28T09:00:35.049Z,85.40
2019-03-28T09:03:00.839Z,85.20
2019-03-28T09:05:29.284Z,84.30
2019-03-28T09:07:57.734Z,84.70
2019-03-28T09:10:26.220Z,83.70
2019-03-28T09:12:54.660Z,83.90
2019-03-28T09:15:23.131Z,83.60
2019-03-28T09:17:51.674Z,83.90
2019-03-28T09:20:20.178Z,85.00
2019-03-28T09:22:48.626Z,83.30
2019-03-28T09:25:17.099Z,83.00
2019-03-28T09:27:45.548Z,81.50
2019-03-28T09:30:14.820Z,82.30
2019-03-28T09:32:43.363Z,81.60
2019-03-28T09:35:13.717Z,81.40
2019-03-28T09:37:42.169Z,81.60
2019-03-28T09:40:10.991Z,80.30
2019-03-28T09:42:39.434Z,80.80
2019-03-28T09:45:08.241Z,79.60
2019-03-28T09:47:36.772Z,79.30
2019-03-28T09:50:06.971Z,79.10
2019-03-28T09:52:35.539Z,79.40
2019-03-28T09:55:05.508Z,79.20
2019-03-28T09:57:34.031Z,79.80
2019-03-28T10:00:02.551Z,78.90
2019-03-28T10:02:31.018Z,77.20
2019-03-28T10:04:59.476Z,76.90
2019-03-28T10:07:27.928Z,76.90
2019-03-28T10:09:56.711Z,77.20
2019-03-28T10:12:25.291Z,75.90
2019-03-28T10:14:53.739Z,75.70
2019-03-28T10:17:22.488Z,75.40
2019-03-28T10:19:50.932Z,75.60
2019-03-28T10:22:22.235Z,75.10
2019-03-28T10:24:49.648Z,75.90
2019-03-28T10:27:19.319Z,75.60
2019-03-28T10:29:48.015Z,75.90
2019-03-28T10:32:16.499Z,76.30
2019-03-28T10:34:45.020Z,75.60
2019-03-28T10:37:13.464Z,75.00
2019-03-28T10:39:42.008Z,73.30
2019-03-28T10:42:10.455Z,74.00
2019-03-28T10:44:38.912Z,74.30
2019-03-28T10:47:07.387Z,72.40
2019-03-28T10:49:35.832Z,71.40
2019-03-28T10:52:04.449Z,69.70
2019-03-28T10:54:32.993Z,71.00
2019-03-28T10:57:13.070Z,70.70
2019-03-28T10:59:31.606Z,70.70
2019-03-28T11:02:00.068Z,71.50
2019-03-28T11:04:28.508Z,69.30
2019-03-28T11:06:56.958Z,69.90
2019-03-28T11:09:25.492Z,67.90
2019-03-28T11:11:53.937Z,66.70
2019-03-28T11:14:22.391Z,63.30
2019-03-28T11:16:50.868Z,64.10
2019-03-28T11:19:19.317Z,65.90
2019-03-28T11:21:48.010Z,63.80
2019-03-28T11:24:16.482Z,62.10
2019-03-28T11:26:44.969Z,61.90
2019-03-28T11:29:13.411Z,64.40
2019-03-28T11:31:46.801Z,64.50
2019-03-28T11:34:12.123Z,63.30
2019-03-28T11:36:40.570Z,62.10
2019-03-28T11:39:09.187Z,62.40
2019-03-28T11:41:37.637Z,64.10
2019-03-28T11:44:06.158Z,61.70
2019-03-28T11:46:34.640Z,62.10
2019-03-28T11:49:03.085Z,63.00
2019-03-28T11:54:21.481Z,59.50
2019-03-28T11:56:49.926Z,56.50
2019-03-28T11:59:18.368Z,55.70
2019-03-28T12:01:59.413Z,56.40
2019-03-28T12:04:17.135Z,53.30
2019-03-28T12:06:48.805Z,49.30
2019-03-28T12:09:15.947Z,50.80
2019-03-28T12:11:44.458Z,50.30
2019-03-28T12:14:12.989Z,52.30
2019-03-28T12:16:41.466Z,51.60
2019-03-28T12:19:10.031Z,54.60
2019-03-28T12:21:38.538Z,56.20
2019-03-28T12:24:07.013Z,54.80
2019-03-28T12:26:35.692Z,56.10
2019-03-28T12:29:05.807Z,58.20
2019-03-28T12:31:34.607Z,57.30
2019-03-28T12:34:03.055Z,57.80
2019-03-28T12:36:31.505Z,56.80
2019-03-28T12:38:59.981Z,58.00
2019-03-28T12:41:28.434Z,55.90
2019-03-28T12:43:56.996Z,57.20
2019-03-28T12:46:25.817Z,57.90
2019-03-28T12:48:54.491Z,58.60
2019-03-28T12:51:23.018Z,58.40
2019-03-28T12:53:53.760Z,59.10
2019-03-28T12:56:22.211Z,58.50
2019-03-28T12:58:50.648Z,59.00
2019-03-28T13:01:19.125Z,58.30
2019-03-28T13:03:47.586Z,58.10
2019-03-28T13:06:16.023Z,59.00
2019-03-28T13:08:44.590Z,59.60
2019-03-28T13:11:13.041Z,60.20
2019-03-28T13:13:41.494Z,56.70
2019-03-28T13:16:10.049Z,52.50
2019-03-28T13:18:38.492Z,49.70
2019-03-28T13:21:13.379Z,50.00
2019-03-28T13:23:37.207Z,47.10
2019-03-28T13:26:05.717Z,48.20
2019-03-28T13:28:34.173Z,48.90
2019-03-28T13:31:02.678Z,51.00
2019-03-28T13:33:31.195Z,52.30
2019-03-28T13:35:59.930Z,53.30
2019-03-28T13:38:28.396Z,53.20
2019-03-28T13:40:56.851Z,53.60
2019-03-28T13:43:25.307Z,54.40
2019-03-28T13:45:53.777Z,55.60
2019-03-28T13:48:22.216Z,55.70
2019-03-28T13:50:50.656Z,57.50
2019-03-28T13:53:19.149Z,58.40
2019-03-28T13:55:47.679Z,58.80
2019-03-28T13:58:16.133Z,59.40
2019-03-28T14:00:44.619Z,59.70
2019-03-28T14:03:13.074Z,61.40
2019-03-28T14:05:41.600Z,61.10
2019-03-28T14:08:10.154Z,61.20
2019-03-28T14:10:38.595Z,61.40
2019-03-28T14:13:07.048Z,61.10
2019-03-28T14:15:35.528Z,61.00
2019-03-28T14:18:04.265Z,61.20
2019-03-28T14:20:32.714Z,61.00
2019-03-28T14:23:01.190Z,60.20
2019-03-28T14:25:29.703Z,60.10
2019-03-28T14:27:58.296Z,60.40
2019-03-28T14:30:27.510Z,60.50
2019-03-28T14:33:10.154Z,60.10
2019-03-28T14:35:26.363Z,60.70
2019-03-28T14:37:54.840Z,59.60
2019-03-28T14:40:23.431Z,59.20
2019-03-28T14:42:51.892Z,61.20
2019-03-28T14:45:20.450Z,60.10
2019-03-28T14:47:48.888Z,60.30
2019-03-28T14:50:20.424Z,59.80
2019-03-28T14:52:48.995Z,60.00
2019-03-28T14:55:17.459Z,58.80
2019-03-28T14:57:46.544Z,61.10
2019-03-28T15:00:24.073Z,60.00
2019-03-28T15:02:52.536Z,59.40
2019-03-28T15:05:21.085Z,59.10
2019-03-28T15:07:49.569Z,56.50
2019-03-28T15:10:18.024Z,52.20
2019-03-28T15:12:46.485Z,49.50
2019-03-28T15:15:15.127Z,49.30
2019-03-28T15:17:44.999Z,48.20
2019-03-28T15:20:13.768Z,47.10
2019-03-28T15:22:42.247Z,46.70
2019-03-28T15:25:10.839Z,46.90
2019-03-28T15:27:39.284Z,45.40
2019-03-28T15:30:08.696Z,47.20
2019-03-28T15:32:37.144Z,47.10
2019-03-28T15:35:06.434Z,46.90
2019-03-28T15:37:34.956Z,47.10
2019-03-28T15:40:05.528Z,46.60
2019-03-28T15:42:33.195Z,46.70
2019-03-28T15:45:01.662Z,46.00
2019-03-28T15:47:30.107Z,45.10
2019-03-28T15:49:58.557Z,47.30
2019-03-28T15:52:27.627Z,48.80
2019-03-28T15:54:56.251Z,51.70
2019-03-28T15:57:24.700Z,51.70
2019-03-28T15:59:53.187Z,48.20
2019-03-28T16:02:21.708Z,47.00
2019-03-28T16:04:50.164Z,49.80
2019-03-28T16:07:18.647Z,51.80
2019-03-28T16:09:47.083Z,51.70
2019-03-28T16:12:15.524Z,52.40
2019-03-28T16:14:44.036Z,52.50
2019-03-28T16:17:12.488Z,53.90
2019-03-28T16:19:40.980Z,56.10
2019-03-28T16:22:09.477Z,57.40
2019-03-28T16:24:37.934Z,57.80
2019-03-28T16:27:06.386Z,58.80
2019-03-28T16:29:34.931Z,59.20
2019-03-28T16:32:03.386Z,59.20
2019-03-28T16:34:31.832Z,59.60
2019-03-28T16:37:00.311Z,60.80
2019-03-28T16:39:28.757Z,60.80
2019-03-28T16:41:57.201Z,59.60
2019-03-28T16:44:25.687Z,59.50
2019-03-28T16:46:54.195Z,59.60
2019-03-28T16:49:22.648Z,61.00
2019-03-28T16:51:51.760Z,61.50
2019-03-28T16:54:29.190Z,62.80
2019-03-28T16:56:51.553Z,62.40
2019-03-28T16:59:20.085Z,62.90
2019-03-28T17:01:48.618Z,63.80
2019-03-28T17:04:20.873Z,63.80
2019-03-28T17:06:47.784Z,64.40
2019-03-28T17:09:16.355Z,64.60
2019-03-28T17:11:44.803Z,64.60
2019-03-28T17:14:13.277Z,64.50
2019-03-28T17:16:42.779Z,65.60
2019-03-28T17:19:11.448Z,65.80
2019-03-28T17:21:40.054Z,65.40
2019-03-28T17:24:08.559Z,64.80
2019-03-28T17:26:37.012Z,66.10
2019-03-28T17:29:05.496Z,66.60
2019-03-28T17:31:34.157Z,67.70
2019-03-28T17:34:02.637Z,67.30
2019-03-28T17:36:31.103Z,67.20
2019-03-28T17:38:59.551Z,68.40
2019-03-28T17:41:28.065Z,68.20
2019-03-28T17:43:56.617Z,68.60
2019-03-28T17:46:25.134Z,68.70
2019-03-28T17:48:53.581Z,68.90
2019-03-28T17:51:22.057Z,69.00
2019-03-28T17:53:50.497Z,69.60
2019-03-28T17:56:19.024Z,70.00
2019-03-28T17:58:47.592Z,70.90
2019-03-28T18:01:16.455Z,70.40
2019-03-28T18:03:44.897Z,70.50
2019-03-28T18:06:13.485Z,71.20
2019-03-28T18:08:41.933Z,71.10
2019-03-28T18:11:10.409Z,71.40
2019-03-28T18:13:38.920Z,72.00
2019-03-28T18:16:07.685Z,72.20
2019-03-28T18:18:36.379Z,72.60
2019-03-28T18:21:04.856Z,72.90
2019-03-28T18:23:33.509Z,73.40
2019-03-28T18:26:02.080Z,73.80
2019-03-28T18:28:31.624Z,74.20
2019-03-28T18:31:00.721Z,74.60
2019-03-28T18:33:30.823Z,74.90
2019-03-28T18:36:00.082Z,75.20
2019-03-28T18:38:30.836Z,76.00
2019-03-28T18:40:59.680Z,76.10
2019-03-28T18:43:28.228Z,76.80
2019-03-28T18:45:56.769Z,76.90
2019-03-28T18:48:31.620Z,76.70
2019-03-28T18:50:55.591Z,76.30
2019-03-28T18:53:24.189Z,76.10
2019-03-28T18:55:52.834Z,76.80
2019-03-28T18:58:21.379Z,76.70
2019-03-28T19:00:49.990Z,77.40
2019-03-28T19:03:18.500Z,77.30
2019-03-28T19:05:48.840Z,77.70
2019-03-28T19:08:17.789Z,78.30
2019-03-28T19:10:46.400Z,78.00
2019-03-28T19:13:14.946Z,78.30
2019-03-28T19:15:43.547Z,79.00
2019-03-28T19:18:12.099Z,79.50
2019-03-28T19:20:40.670Z,80.10
2019-03-28T19:23:09.264Z,81.20
2019-03-28T19:25:37.695Z,81.90
2019-03-28T19:28:07.760Z,82.30
2019-03-28T19:30:36.734Z,82.80
2019-03-28T19:33:07.070Z,83.60
2019-03-28T19:35:36.786Z,84.00
2019-03-28T19:38:08.858Z,84.30
2019-03-28T19:40:35.828Z,84.70
2019-03-28T19:43:19.253Z,85.20
2019-03-28T19:45:36.563Z,85.50
2019-03-28T19:48:06.307Z,85.70
2019-03-28T19:50:34.963Z,86.00
2019-03-28T19:53:03.546Z,86.30
2019-03-28T19:55:31.992Z,87.10
2019-03-28T19:58:00.536Z,87.50
2019-03-28T20:00:29.364Z,87.90
2019-03-28T20:03:00.362Z,87.90
2019-03-28T20:05:28.268Z,87.90
2019-03-28T20:07:56.711Z,88.30
2019-03-28T20:10:25.227Z,88.50
2019-03-28T20:12:53.707Z,89.20
2019-03-28T20:15:22.155Z,89.50
2019-03-28T20:17:50.604Z,89.40
2019-03-28T20:20:19.212Z,89.50
2019-03-28T20:22:47.655Z,89.50
2019-03-28T20:25:16.096Z,89.80
2019-03-28T20:27:44.580Z,90.00
2019-03-28T20:30:13.329Z,90.30
2019-03-28T20:32:41.842Z,90.80
2019-03-28T20:35:11.108Z,90.50
2019-03-28T20:37:39.573Z,90.50
2019-03-28T20:40:08.653Z,90.60
2019-03-28T20:42:37.135Z,90.80
2019-03-28T20:45:07.530Z,90.80
2019-03-28T20:47:36.052Z,90.90
2019-03-28T20:50:07.686Z,91.00
2019-03-28T20:52:36.124Z,91.20
2019-03-28T20:55:06.304Z,91.40
2019-03-28T20:57:35.925Z,91.60
2019-03-28T21:00:08.544Z,91.70
2019-03-28T21:02:36.331Z,91.90
2019-03-28T21:05:06.544Z,92.00
2019-03-28T21:07:35.056Z,92.40
2019-03-28T21:10:04.279Z,92.50
2019-03-28T21:12:32.747Z,92.40
2019-03-28T21:15:01.224Z,92.30
2019-03-28T21:17:32.135Z,92.40
2019-03-28T21:20:00.009Z,92.70
2019-03-28T21:22:28.453Z,92.50
2019-03-28T21:24:57.022Z,92.50
2019-03-28T21:27:25.549Z,92.70
2019-03-28T21:29:54.005Z,92.90
2019-03-28T21:32:22.636Z,93.20
2019-03-28T21:34:55.981Z,93.40
2019-03-28T21:37:21.558Z,93.20
2019-03-28T21:39:50.021Z,93.50
2019-03-28T21:42:20.136Z,93.70
2019-03-28T21:44:48.887Z,93.90
2019-03-28T21:47:17.520Z,93.80
2019-03-28T21:49:45.991Z,93.80
2019-03-28T21:52:14.555Z,94.10
2019-03-28T21:54:43.082Z,94.30
2019-03-28T21:57:14.486Z,94.50
2019-03-28T21:59:41.820Z,94.90
2019-03-28T22:02:10.445Z,94.80
2019-03-28T22:04:38.979Z,95.00
2019-03-28T22:07:08.684Z,94.90
2019-03-28T22:09:39.570Z,94.70
2019-03-28T22:12:10.240Z,94.60
2019-03-28T22:14:39.808Z,95.00
2019-03-28T22:17:08.451Z,95.10
2019-03-28T22:19:36.912Z,95.20
2019-03-28T22:22:05.385Z,95.30
2019-03-28T22:24:33.819Z,95.50
2019-03-28T22:27:02.329Z,95.60
2019-03-28T22:29:30.861Z,95.60
2019-03-28T22:31:59.305Z,95.80
2019-03-28T22:34:27.778Z,96.20
2019-03-28T22:36:59.248Z,96.40
2019-03-28T22:39:26.671Z,96.50
2019-03-28T22:41:55.223Z,96.80
2019-03-28T22:44:24.970Z,96.90
2019-03-28T22:46:53.712Z,97.10
2019-03-28T22:49:22.353Z,96.90
2019-03-28T22:51:50.897Z,97.00
2019-03-28T22:54:19.464Z,97.00
2019-03-28T22:56:48.004Z,97.10
2019-03-28T22:59:16.520Z,97.20
2019-03-28T23:01:45.028Z,97.00
2019-03-28T23:04:19.697Z,97.30
2019-03-28T23:06:48.878Z,97.40
2019-03-28T23:09:17.451Z,97.00
2019-03-28T23:11:46.022Z,96.90
2019-03-28T23:14:14.597Z,97.10
2019-03-28T23:16:43.044Z,97.00
2019-03-28T23:19:12.122Z,97.50
2019-03-28T23:21:41.607Z,97.30
2019-03-28T23:24:10.131Z,97.50
2019-03-28T23:26:38.669Z,97.40
2019-03-28T23:29:07.116Z,97.90
2019-03-28T23:32:13.148Z,98.20
2019-03-28T23:34:41.611Z,98.20
2019-03-28T23:37:10.056Z,98.10
2019-03-28T23:39:38.996Z,98.00
2019-03-28T23:42:07.529Z,98.00
2019-03-28T23:44:42.032Z,98.30
2019-03-28T23:47:10.487Z,98.00
2019-03-28T23:49:40.474Z,98.00
2019-03-28T23:52:09.260Z,98.00
2019-03-28T23:54:37.748Z,97.90
2019-03-28T23:57:06.276Z,97.80
2019-03-28T23:59:34.729Z,98.10
